createdAt,value
2023-05-22T00:02:43.059Z,6.53
2023-05-22T00:07:46.254Z,6.25
2023-05-22T00:12:48.350Z,7.00
2023-05-22T00:17:53.968Z,6.60
2023-05-22T00:22:57.038Z,6.63
2023-05-22T00:27:58.907Z,7.07
2023-05-22T00:33:00.941Z,6.72
2023-05-22T00:38:05.548Z,7.07
2023-05-22T00:43:08.958Z,7.07
2023-05-22T00:48:12.573Z,6.80
2023-05-22T00:53:15.532Z,6.78
2023-05-22T00:58:18.595Z,6.70
2023-05-22T01:03:27.081Z,6.57
2023-05-22T01:08:29.698Z,7.10
2023-05-22T01:14:08.524Z,6.65
2023-05-22T01:19:48.012Z,6.72
2023-05-22T01:24:59.032Z,6.75
2023-05-22T01:30:12.962Z,6.75
2023-05-22T01:35:19.188Z,7.05
2023-05-22T01:40:21.733Z,7.32
2023-05-22T01:45:24.208Z,6.93
2023-05-22T01:50:26.742Z,6.47
2023-05-22T01:55:45.382Z,7.00
2023-05-22T02:00:51.705Z,6.93
2023-05-22T02:05:55.705Z,6.97
2023-05-22T02:10:59.478Z,7.40
2023-05-22T02:16:01.650Z,7.18
2023-05-22T02:21:08.577Z,7.18
2023-05-22T02:26:10.690Z,7.47
2023-05-22T02:31:12.595Z,6.90
2023-05-22T02:36:15.636Z,6.88
2023-05-22T02:41:18.465Z,7.43
2023-05-22T02:46:20.938Z,6.70
2023-05-22T02:51:23.350Z,6.82
2023-05-22T02:56:27.969Z,6.82
2023-05-22T03:01:31.323Z,6.68
2023-05-22T03:06:35.360Z,6.95
2023-05-22T03:11:37.710Z,6.95
2023-05-22T03:16:39.866Z,6.97
2023-05-22T03:21:46.644Z,7.70
2023-05-22T03:26:48.583Z,6.90
2023-05-22T03:31:57.220Z,6.85
2023-05-22T03:37:00.595Z,7.03
2023-05-22T03:42:02.636Z,7.63
2023-05-22T03:47:05.111Z,6.72
2023-05-22T03:52:09.697Z,7.32
2023-05-22T03:57:12.493Z,7.55
2023-05-22T04:02:16.899Z,6.78
2023-05-22T04:07:20.424Z,6.85
2023-05-22T04:12:22.741Z,7.45
2023-05-22T04:17:31.136Z,7.18
2023-05-22T04:22:33.345Z,6.82
2023-05-22T04:27:35.702Z,6.75
2023-05-22T04:32:38.398Z,6.18
2023-05-22T04:37:45.669Z,5.47
2023-05-22T04:42:47.573Z,6.80
2023-05-22T04:47:49.489Z,6.05
2023-05-22T04:52:51.467Z,5.63
2023-05-22T04:57:53.730Z,5.57
2023-05-22T05:02:57.557Z,5.80
2023-05-22T05:08:00.227Z,5.90
2023-05-22T05:13:02.599Z,5.38
2023-05-22T05:18:04.703Z,5.72
2023-05-22T05:23:06.618Z,5.43
2023-05-22T05:28:12.936Z,4.75
2023-05-22T05:33:16.629Z,4.65
2023-05-22T05:38:41.659Z,4.45
2023-05-22T05:43:44.871Z,5.00
2023-05-22T05:48:47.039Z,5.28
2023-05-22T05:53:50.085Z,5.05
2023-05-22T05:58:52.650Z,5.18
2023-05-22T06:04:15.580Z,5.35
2023-05-22T06:09:20.626Z,5.50
2023-05-22T06:14:42.780Z,5.32
2023-05-22T06:19:45.095Z,4.72
2023-05-22T06:24:48.430Z,4.70
2023-05-22T06:29:55.271Z,5.15
2023-05-22T06:34:59.877Z,4.90
2023-05-22T06:40:04.127Z,5.15
2023-05-22T06:45:15.014Z,5.15
2023-05-22T06:50:27.129Z,5.03
2023-05-22T06:55:29.826Z,4.70
2023-05-22T07:00:40.879Z,4.63
2023-05-22T07:05:49.261Z,4.97
2023-05-22T07:10:51.805Z,4.60
2023-05-22T07:15:53.708Z,4.28
2023-05-22T07:20:56.093Z,4.72
2023-05-22T07:25:58.756Z,4.55
2023-05-22T07:31:07.520Z,4.10
2023-05-22T07:36:09.548Z,4.50
2023-05-22T07:41:14.302Z,3.97
2023-05-22T07:46:16.563Z,5.25
2023-05-22T07:51:31.000Z,4.25
2023-05-22T07:56:32.948Z,4.13
2023-05-22T08:01:37.604Z,4.00
2023-05-22T08:06:40.084Z,4.15
2023-05-22T08:11:42.865Z,4.47
2023-05-22T08:16:44.996Z,4.25
2023-05-22T08:21:46.857Z,3.92
2023-05-22T08:26:48.802Z,3.65
2023-05-22T08:31:52.389Z,4.15
2023-05-22T08:36:54.412Z,3.22
2023-05-22T08:41:56.381Z,3.17
2023-05-22T08:47:01.100Z,2.95
2023-05-22T08:52:21.885Z,3.15
2023-05-22T09:02:27.220Z,3.00
2023-05-22T09:07:30.081Z,2.90
2023-05-22T09:12:32.478Z,2.65
2023-05-22T09:17:34.521Z,2.55
2023-05-22T09:22:40.100Z,2.80
2023-05-22T09:27:46.309Z,2.83
2023-05-22T09:32:51.155Z,3.15
2023-05-22T09:37:53.111Z,2.95
2023-05-22T09:42:55.094Z,2.47
2023-05-22T09:47:58.074Z,2.42
2023-05-22T09:53:03.229Z,3.42
2023-05-22T09:58:09.316Z,2.95
2023-05-22T10:03:17.532Z,3.58
2023-05-22T10:08:26.364Z,3.05
2023-05-22T10:13:28.898Z,4.30
2023-05-22T10:18:30.855Z,3.85
2023-05-22T10:23:32.849Z,3.22
2023-05-22T10:29:07.587Z,3.70
2023-05-22T10:34:15.708Z,3.90
2023-05-22T10:39:45.454Z,3.40
2023-05-22T10:44:48.980Z,3.35
2023-05-22T10:50:04.100Z,3.47
2023-05-22T10:55:08.762Z,3.30
2023-05-22T11:00:13.392Z,3.10
2023-05-22T11:05:19.121Z,3.22
2023-05-22T11:10:47.825Z,3.28
2023-05-22T11:15:49.800Z,3.35
2023-05-22T11:20:53.934Z,2.97
2023-05-22T11:25:55.839Z,3.20
2023-05-22T11:30:58.026Z,2.90
2023-05-22T11:36:02.124Z,3.10
2023-05-22T11:41:04.104Z,3.15
2023-05-22T11:46:15.397Z,2.80
2023-05-22T11:51:20.769Z,2.75
2023-05-22T11:56:23.163Z,2.53
2023-05-22T12:01:25.070Z,3.17
2023-05-22T12:06:27.083Z,2.92
2023-05-22T12:11:29.140Z,2.47
2023-05-22T12:16:37.273Z,2.63
2023-05-22T12:21:41.076Z,2.53
2023-05-22T12:26:50.197Z,2.80
2023-05-22T12:31:52.167Z,2.80
2023-05-22T12:36:54.112Z,3.13
2023-05-22T12:41:56.047Z,2.60
2023-05-22T12:46:58.249Z,2.55
2023-05-22T12:52:00.302Z,3.00
2023-05-22T12:57:02.609Z,3.00
2023-05-22T13:02:06.014Z,3.22
2023-05-22T13:07:08.365Z,2.75
2023-05-22T13:12:11.440Z,3.20
2023-05-22T13:17:13.815Z,2.90
2023-05-22T13:22:15.999Z,3.17
2023-05-22T13:27:19.273Z,2.90
2023-05-22T13:32:21.281Z,2.80
2023-05-22T13:37:23.680Z,2.58
2023-05-22T13:42:26.179Z,3.20
2023-05-22T13:47:28.517Z,3.45
2023-05-22T13:52:30.487Z,2.80
2023-05-22T13:57:32.375Z,3.10
2023-05-22T14:02:34.403Z,3.40
2023-05-22T14:07:36.381Z,2.92
2023-05-22T14:12:38.466Z,3.20
2023-05-22T14:17:40.604Z,3.28
2023-05-22T14:22:56.028Z,3.13
2023-05-22T14:27:59.381Z,3.22
2023-05-22T14:33:01.439Z,3.35
2023-05-22T14:38:03.618Z,3.20
2023-05-22T14:43:05.860Z,2.85
2023-05-22T14:48:11.018Z,2.72
2023-05-22T14:53:13.256Z,3.00
2023-05-22T14:58:15.237Z,2.72
2023-05-22T15:03:19.045Z,2.75
2023-05-22T15:08:21.269Z,3.15
2023-05-22T15:13:23.133Z,2.85
2023-05-22T15:18:27.089Z,3.00
2023-05-22T15:23:29.225Z,3.30
2023-05-22T15:28:31.152Z,2.90
2023-05-22T15:33:34.436Z,2.67
2023-05-22T15:38:36.286Z,2.88
2023-05-22T15:43:38.180Z,2.70
2023-05-22T15:48:40.177Z,3.10
2023-05-22T15:53:42.070Z,2.45
2023-05-22T15:58:44.037Z,2.97
2023-05-22T16:03:46.120Z,2.83
2023-05-22T16:08:48.061Z,2.90
2023-05-22T16:13:50.299Z,2.53
2023-05-22T16:18:52.291Z,3.35
2023-05-22T16:23:54.258Z,2.80
2023-05-22T16:28:56.169Z,2.58
2023-05-22T16:33:58.066Z,3.10
2023-05-22T16:39:00.004Z,3.00
2023-05-22T16:44:01.917Z,3.20
2023-05-22T16:49:03.818Z,2.90
2023-05-22T16:54:05.849Z,2.83
2023-05-22T16:59:08.060Z,2.38
2023-05-22T17:04:14.950Z,2.72
2023-05-22T17:09:18.065Z,2.85
2023-05-22T17:14:23.576Z,2.50
2023-05-22T17:19:26.902Z,3.22
2023-05-22T17:24:30.172Z,2.70
2023-05-22T17:29:32.338Z,2.50
2023-05-22T17:34:34.907Z,2.60
2023-05-22T17:39:37.664Z,3.15
2023-05-22T17:44:39.781Z,2.67
2023-05-22T17:49:42.476Z,2.75
2023-05-22T17:54:45.080Z,2.75
2023-05-22T17:59:47.539Z,2.28
2023-05-22T18:04:50.324Z,3.03
2023-05-22T18:09:52.851Z,3.13
2023-05-22T18:14:55.173Z,2.70
2023-05-22T18:19:57.705Z,3.13
2023-05-22T18:25:00.468Z,3.17
2023-05-22T18:30:05.506Z,2.88
2023-05-22T18:35:09.005Z,2.90
2023-05-22T18:40:12.014Z,2.80
2023-05-22T18:45:14.753Z,2.70
2023-05-22T18:50:17.364Z,2.72
2023-05-22T18:55:19.817Z,2.45
2023-05-22T19:00:22.566Z,2.90
2023-05-22T19:05:25.224Z,3.10
2023-05-22T19:10:27.889Z,3.30
2023-05-22T19:15:29.803Z,2.97
2023-05-22T19:20:31.821Z,3.00
2023-05-22T19:25:33.823Z,3.08
2023-05-22T19:30:36.000Z,2.67
2023-05-22T19:35:38.776Z,2.85
2023-05-22T19:40:40.892Z,3.05
2023-05-22T19:45:43.210Z,3.42
2023-05-22T19:50:45.215Z,3.30
2023-05-22T19:55:47.680Z,2.83
2023-05-22T20:00:49.662Z,3.22
2023-05-22T20:05:53.630Z,3.08
2023-05-22T20:10:55.596Z,3.00
2023-05-22T20:15:57.545Z,2.90
2023-05-22T20:20:59.527Z,3.30
2023-05-22T20:26:01.516Z,3.17
2023-05-22T20:31:05.170Z,3.53
2023-05-22T20:36:07.368Z,3.08
2023-05-22T20:41:09.994Z,3.28
2023-05-22T20:46:12.549Z,3.53
2023-05-22T20:51:20.996Z,3.38
2023-05-22T20:56:22.913Z,3.38
2023-05-22T21:01:25.274Z,4.05
2023-05-22T21:06:27.325Z,3.10
2023-05-22T21:11:29.249Z,3.72
2023-05-22T21:16:31.196Z,3.28
2023-05-22T21:21:33.312Z,3.53
2023-05-22T21:26:35.611Z,3.72
2023-05-22T21:31:37.700Z,3.92
2023-05-22T21:36:39.645Z,3.70
2023-05-22T21:41:41.530Z,3.42
2023-05-22T21:46:43.418Z,2.95
2023-05-22T21:51:45.304Z,3.58
2023-05-22T21:56:47.572Z,3.85
2023-05-22T22:01:49.505Z,3.70
2023-05-22T22:06:51.391Z,3.10
2023-05-22T22:11:53.244Z,3.53
2023-05-22T22:16:55.221Z,4.10
2023-05-22T22:21:57.372Z,3.78
2023-05-22T22:26:59.275Z,4.10
2023-05-22T22:32:01.182Z,3.58
2023-05-22T22:37:03.089Z,3.10
2023-05-22T22:42:05.303Z,3.97
2023-05-22T22:47:07.689Z,3.22
2023-05-22T22:52:09.632Z,3.35
2023-05-22T22:57:11.506Z,3.47
2023-05-22T23:02:13.419Z,3.60
2023-05-22T23:07:15.309Z,3.95
2023-05-22T23:12:17.341Z,3.08
2023-05-22T23:17:19.236Z,3.90
2023-05-22T23:22:21.170Z,3.85
2023-05-22T23:27:23.048Z,3.72
2023-05-22T23:32:25.176Z,3.67
2023-05-22T23:37:27.070Z,3.97
2023-05-22T23:42:29.281Z,3.60
2023-05-22T23:47:31.781Z,4.07
2023-05-22T23:52:33.773Z,3.83
2023-05-22T23:57:36.190Z,3.88
